sensor_id;sensor_type;location;lat;lon;timestamp;pressure;altitude;pressure_sealevel;temperature;humidity
9277;BME280;4676;42.678;23.244;2023-01-29T00:01:05;94153.81;;;0.01;100.00
9277;BME280;4676;42.678;23.244;2023-01-29T00:03:32;94162.13;;;0.02;100.00
9277;BME280;4676;42.678;23.244;2023-01-29T00:06:03;94172.06;;;0.05;100.00
9277;BME280;4676;42.678;23.244;2023-01-29T00:08:32;94167.09;;;0.02;100.00
9277;BME280;4676;42.678;23.244;2023-01-29T00:11:00;94164.59;;;0.02;100.00
9277;BME280;4676;42.678;23.244;2023-01-29T00:13:27;94167.13;;;0.00;100.00
9277;BME280;4676;42.678;23.244;2023-01-29T00:15:54;94146.34;;;-0.22;100.00
9277;BME280;4676;42.678;23.244;2023-01-29T00:18:21;94167.91;;;-0.03;100.00
9277;BME280;4676;42.678;23.244;2023-01-29T00:20:48;94173.75;;;-0.04;100.00
9277;BME280;4676;42.678;23.244;2023-01-29T00:23:15;94174.56;;;0.02;100.00
9277;BME280;4676;42.678;23.244;2023-01-29T00:25:43;94181.19;;;-0.07;100.00
9277;BME280;4676;42.678;23.244;2023-01-29T00:28:10;94180.38;;;-0.01;100.00
9277;BME280;4676;42.678;23.244;2023-01-29T00:30:37;94180.38;;;0.05;100.00
9277;BME280;4676;42.678;23.244;2023-01-29T00:33:04;94184.53;;;0.05;100.00
9277;BME280;4676;42.678;23.244;2023-01-29T00:35:31;94187.00;;;-0.03;100.00
9277;BME280;4676;42.678;23.244;2023-01-29T00:37:58;94187.00;;;-0.17;100.00
9277;BME280;4676;42.678;23.244;2023-01-29T00:40:26;94191.16;;;-0.19;100.00
9277;BME280;4676;42.678;23.244;2023-01-29T00:43:14;94189.47;;;-0.17;100.00
9277;BME280;4676;42.678;23.244;2023-01-29T00:45:58;94185.38;;;-0.07;100.00
9277;BME280;4676;42.678;23.244;2023-01-29T00:48:25;94187.00;;;-0.14;100.00
9277;BME280;4676;42.678;23.244;2023-01-29T00:50:52;94182.03;;;-0.15;100.00
9277;BME280;4676;42.678;23.244;2023-01-29T00:53:18;94190.31;;;-0.19;100.00
9277;BME280;4676;42.678;23.244;2023-01-29T00:55:45;94192.00;;;-0.21;100.00
9277;BME280;4676;42.678;23.244;2023-01-29T00:58:13;94182.84;;;-0.19;100.00
9277;BME280;4676;42.678;23.244;2023-01-29T01:00:46;94183.69;;;-0.13;100.00
9277;BME280;4676;42.678;23.244;2023-01-29T01:03:13;94181.19;;;-0.07;100.00
9277;BME280;4676;42.678;23.244;2023-01-29T01:05:38;94187.00;;;-0.03;100.00
9277;BME280;4676;42.678;23.244;2023-01-29T01:08:08;94184.53;;;-0.11;100.00
9277;BME280;4676;42.678;23.244;2023-01-29T01:10:57;94175.38;;;-0.22;100.00
9277;BME280;4676;42.678;23.244;2023-01-29T01:13:26;94183.69;;;-0.14;100.00
9277;BME280;4676;42.678;23.244;2023-01-29T01:15:53;94184.50;;;-0.18;100.00
9277;BME280;4676;42.678;23.244;2023-01-29T01:18:20;94189.47;;;-0.20;100.00
9277;BME280;4676;42.678;23.244;2023-01-29T01:20:47;94172.91;;;-0.12;100.00
9277;BME280;4676;42.678;23.244;2023-01-29T01:23:16;94179.53;;;-0.12;100.00
9277;BME280;4676;42.678;23.244;2023-01-29T01:25:43;94177.88;;;-0.12;100.00
9277;BME280;4676;42.678;23.244;2023-01-29T01:28:11;94188.69;;;-0.14;100.00
9277;BME280;4676;42.678;23.244;2023-01-29T01:30:39;94179.56;;;-0.05;100.00
9277;BME280;4676;42.678;23.244;2023-01-29T01:33:06;94177.06;;;-0.09;100.00
9277;BME280;4676;42.678;23.244;2023-01-29T01:35:33;94174.56;;;-0.06;100.00
9277;BME280;4676;42.678;23.244;2023-01-29T01:37:59;94173.75;;;-0.04;100.00
9277;BME280;4676;42.678;23.244;2023-01-29T01:40:27;94178.72;;;-0.01;100.00
9277;BME280;4676;42.678;23.244;2023-01-29T01:42:56;94154.63;;;-0.14;100.00
9277;BME280;4676;42.678;23.244;2023-01-29T01:45:26;94169.59;;;-0.11;100.00
9277;BME280;4676;42.678;23.244;2023-01-29T01:47:57;94187.88;;;0.02;100.00
9277;BME280;4676;42.678;23.244;2023-01-29T01:50:28;94185.38;;;-0.04;100.00
9277;BME280;4676;42.678;23.244;2023-01-29T01:52:59;94191.16;;;-0.08;100.00
9277;BME280;4676;42.678;23.244;2023-01-29T01:55:29;94193.66;;;-0.10;100.00
9277;BME280;4676;42.678;23.244;2023-01-29T01:58:04;94189.50;;;-0.11;100.00
9277;BME280;4676;42.678;23.244;2023-01-29T02:00:33;94197.81;;;-0.12;100.00
9277;BME280;4676;42.678;23.244;2023-01-29T02:03:01;94187.00;;;-0.06;100.00
9277;BME280;4676;42.678;23.244;2023-01-29T02:05:46;94189.50;;;-0.06;100.00
9277;BME280;4676;42.678;23.244;2023-01-29T02:08:34;94196.16;;;-0.05;100.00
9277;BME280;4676;42.678;23.244;2023-01-29T02:11:22;94182.88;;;-0.03;100.00
9277;BME280;4676;42.678;23.244;2023-01-29T02:13:49;94186.19;;;-0.07;100.00
9277;BME280;4676;42.678;23.244;2023-01-29T02:16:18;94187.03;;;-0.05;100.00
9277;BME280;4676;42.678;23.244;2023-01-29T02:18:46;94189.50;;;-0.08;100.00
9277;BME280;4676;42.678;23.244;2023-01-29T02:21:20;94187.00;;;-0.03;100.00
9277;BME280;4676;42.678;23.244;2023-01-29T02:24:10;94193.66;;;0.01;100.00
9277;BME280;4676;42.678;23.244;2023-01-29T02:27:01;94199.47;;;-0.02;100.00
9277;BME280;4676;42.678;23.244;2023-01-29T02:29:34;94201.94;;;-0.14;100.00
9277;BME280;4676;42.678;23.244;2023-01-29T02:32:17;94206.91;;;-0.20;100.00
9277;BME280;4676;42.678;23.244;2023-01-29T02:34:51;94208.56;;;-0.25;100.00
9277;BME280;4676;42.678;23.244;2023-01-29T02:37:40;94205.25;;;-0.21;100.00
9277;BME280;4676;42.678;23.244;2023-01-29T02:40:15;94211.88;;;-0.26;100.00
9277;BME280;4676;42.678;23.244;2023-01-29T02:42:51;94201.09;;;-0.26;100.00
9277;BME280;4676;42.678;23.244;2023-01-29T02:45:25;94210.22;;;-0.27;100.00
9277;BME280;4676;42.678;23.244;2023-01-29T02:47:57;94201.09;;;-0.29;100.00
9277;BME280;4676;42.678;23.244;2023-01-29T02:50:29;94218.53;;;-0.13;100.00
9277;BME280;4676;42.678;23.244;2023-01-29T02:53:00;94212.72;;;-0.22;100.00
9277;BME280;4676;42.678;23.244;2023-01-29T02:55:33;94220.22;;;-0.15;100.00
9277;BME280;4676;42.678;23.244;2023-01-29T02:58:08;94212.75;;;-0.15;100.00
9277;BME280;4676;42.678;23.244;2023-01-29T03:00:40;94209.41;;;-0.12;100.00
9277;BME280;4676;42.678;23.244;2023-01-29T03:03:11;94216.06;;;-0.07;100.00
9277;BME280;4676;42.678;23.244;2023-01-29T03:05:44;94219.41;;;0.02;100.00
9277;BME280;4676;42.678;23.244;2023-01-29T03:08:23;94211.94;;;0.06;100.00
9277;BME280;4676;42.678;23.244;2023-01-29T03:11:02;94206.13;;;0.07;100.00
9277;BME280;4676;42.678;23.244;2023-01-29T03:13:34;94214.44;;;0.05;100.00
9277;BME280;4676;42.678;23.244;2023-01-29T03:16:07;94215.25;;;0.05;100.00
9277;BME280;4676;42.678;23.244;2023-01-29T03:18:39;94221.06;;;-0.05;100.00
9277;BME280;4676;42.678;23.244;2023-01-29T03:21:14;94219.41;;;-0.02;100.00
9277;BME280;4676;42.678;23.244;2023-01-29T03:24:02;94218.59;;;0.09;100.00
9277;BME280;4676;42.678;23.244;2023-01-29T03:26:46;94217.75;;;0.11;100.00
9277;BME280;4676;42.678;23.244;2023-01-29T03:29:32;94229.41;;;0.17;100.00
9277;BME280;4676;42.678;23.244;2023-01-29T03:32:20;94226.91;;;0.09;100.00
9277;BME280;4676;42.678;23.244;2023-01-29T03:34:53;94212.78;;;0.08;100.00
9277;BME280;4676;42.678;23.244;2023-01-29T03:37:25;94221.09;;;0.16;100.00
9277;BME280;4676;42.678;23.244;2023-01-29T03:39:53;94225.25;;;0.10;100.00
9277;BME280;4676;42.678;23.244;2023-01-29T03:42:25;94231.88;;;0.08;100.00
9277;BME280;4676;42.678;23.244;2023-01-29T03:44:59;94223.56;;;0.04;100.00
9277;BME280;4676;42.678;23.244;2023-01-29T03:47:41;94226.06;;;0.10;100.00
9277;BME280;4676;42.678;23.244;2023-01-29T03:50:14;94187.03;;;-0.05;100.00
9277;BME280;4676;42.678;23.244;2023-01-29T03:52:49;94211.94;;;0.12;100.00
9277;BME280;4676;42.678;23.244;2023-01-29T03:55:19;94204.47;;;0.11;100.00
9277;BME280;4676;42.678;23.244;2023-01-29T03:57:54;94212.78;;;0.08;100.00
9277;BME280;4676;42.678;23.244;2023-01-29T04:00:27;94221.91;;;0.03;100.00
9277;BME280;4676;42.678;23.244;2023-01-29T04:03:03;94222.72;;;0.00;100.00
9277;BME280;4676;42.678;23.244;2023-01-29T04:05:38;94206.94;;;-0.11;100.00
9277;BME280;4676;42.678;23.244;2023-01-29T04:08:13;94207.78;;;0.05;100.00
9277;BME280;4676;42.678;23.244;2023-01-29T04:10:44;94218.59;;;0.12;100.00
9277;BME280;4676;42.678;23.244;2023-01-29T04:13:14;94215.28;;;0.07;100.00
9277;BME280;4676;42.678;23.244;2023-01-29T04:15:45;94214.44;;;-0.02;100.00
9277;BME280;4676;42.678;23.244;2023-01-29T04:18:14;94231.03;;;0.07;100.00
9277;BME280;4676;42.678;23.244;2023-01-29T04:20:41;94226.88;;;0.05;100.00
9277;BME280;4676;42.678;23.244;2023-01-29T04:23:19;94234.34;;;0.05;100.00
9277;BME280;4676;42.678;23.244;2023-01-29T04:25:53;94234.34;;;-0.06;100.00
9277;BME280;4676;42.678;23.244;2023-01-29T04:28:27;94154.53;;;-0.56;100.00
9277;BME280;4676;42.678;23.244;2023-01-29T04:31:04;94244.28;;;-0.06;100.00
9277;BME280;4676;42.678;23.244;2023-01-29T04:33:38;94233.50;;;-0.10;100.00
9277;BME280;4676;42.678;23.244;2023-01-29T04:36:23;94239.28;;;-0.17;100.00
9277;BME280;4676;42.678;23.244;2023-01-29T04:39:00;94245.97;;;-0.14;100.00
9277;BME280;4676;42.678;23.244;2023-01-29T04:41:34;94231.81;;;-0.23;100.00
9277;BME280;4676;42.678;23.244;2023-01-29T04:44:07;94243.44;;;-0.10;100.00
9277;BME280;4676;42.678;23.244;2023-01-29T04:46:45;94201.09;;;-0.29;100.00
9277;BME280;4676;42.678;23.244;2023-01-29T04:49:22;94242.63;;;-0.10;100.00
9277;BME280;4676;42.678;23.244;2023-01-29T04:51:59;94244.31;;;-0.11;100.00
9277;BME280;4676;42.678;23.244;2023-01-29T04:54:33;94238.47;;;-0.07;100.00
9277;BME280;4676;42.678;23.244;2023-01-29T04:57:07;94241.81;;;-0.08;100.00
9277;BME280;4676;42.678;23.244;2023-01-29T04:59:40;94226.84;;;-0.15;100.00
9277;BME280;4676;42.678;23.244;2023-01-29T05:02:09;94206.88;;;-0.35;100.00
9277;BME280;4676;42.678;23.244;2023-01-29T05:04:39;94227.66;;;-0.21;100.00
9277;BME280;4676;42.678;23.244;2023-01-29T05:07:11;94250.06;;;-0.19;100.00
9277;BME280;4676;42.678;23.244;2023-01-29T05:09:41;94246.78;;;-0.18;100.00
9277;BME280;4676;42.678;23.244;2023-01-29T05:12:10;94250.06;;;-0.24;100.00
9277;BME280;4676;42.678;23.244;2023-01-29T05:14:39;94258.34;;;-0.31;100.00
9277;BME280;4676;42.678;23.244;2023-01-29T05:17:10;94259.19;;;-0.32;100.00
9277;BME280;4676;42.678;23.244;2023-01-29T05:19:41;94255.03;;;-0.28;100.00
9277;BME280;4676;42.678;23.244;2023-01-29T05:22:09;94257.50;;;-0.34;100.00
9277;BME280;4676;42.678;23.244;2023-01-29T05:24:37;94256.72;;;-0.23;100.00
9277;BME280;4676;42.678;23.244;2023-01-29T05:27:04;94240.88;;;-0.38;100.00
9277;BME280;4676;42.678;23.244;2023-01-29T05:29:48;94256.69;;;-0.24;100.00
9277;BME280;4676;42.678;23.244;2023-01-29T05:32:15;94258.38;;;-0.23;100.00
9277;BME280;4676;42.678;23.244;2023-01-29T05:34:43;94265.84;;;-0.22;100.00
9277;BME280;4676;42.678;23.244;2023-01-29T05:37:10;94266.66;;;-0.29;100.00
9277;BME280;4676;42.678;23.244;2023-01-29T05:39:36;94268.34;;;-0.25;100.00
9277;BME280;4676;42.678;23.244;2023-01-29T05:42:03;94269.16;;;-0.23;100.00
9277;BME280;4676;42.678;23.244;2023-01-29T05:44:30;94274.16;;;-0.20;100.00
9277;BME280;4676;42.678;23.244;2023-01-29T05:46:57;94277.47;;;-0.19;100.00
9277;BME280;4676;42.678;23.244;2023-01-29T05:49:23;94272.50;;;-0.18;100.00
9277;BME280;4676;42.678;23.244;2023-01-29T05:51:51;94279.13;;;-0.20;100.00
9277;BME280;4676;42.678;23.244;2023-01-29T05:54:18;94281.63;;;-0.17;100.00
9277;BME280;4676;42.678;23.244;2023-01-29T05:56:45;94275.00;;;-0.18;100.00
9277;BME280;4676;42.678;23.244;2023-01-29T05:59:12;94276.63;;;-0.26;100.00
9277;BME280;4676;42.678;23.244;2023-01-29T06:01:38;94286.59;;;-0.20;100.00
9277;BME280;4676;42.678;23.244;2023-01-29T06:04:05;94286.63;;;-0.15;100.00
9277;BME280;4676;42.678;23.244;2023-01-29T06:06:32;94287.44;;;-0.16;100.00
9277;BME280;4676;42.678;23.244;2023-01-29T06:09:00;94218.44;;;-0.52;100.00
9277;BME280;4676;42.678;23.244;2023-01-29T06:11:27;94285.81;;;-0.11;100.00
9277;BME280;4676;42.678;23.244;2023-01-29T06:13:54;94299.09;;;-0.03;100.00
9277;BME280;4676;42.678;23.244;2023-01-29T06:16:21;94297.44;;;-0.03;100.00
9277;BME280;4676;42.678;23.244;2023-01-29T06:18:48;94303.25;;;-0.02;100.00
9277;BME280;4676;42.678;23.244;2023-01-29T06:21:15;94282.47;;;-0.18;100.00
9277;BME280;4676;42.678;23.244;2023-01-29T06:23:41;94310.69;;;-0.13;100.00
9277;BME280;4676;42.678;23.244;2023-01-29T06:26:11;94302.38;;;-0.16;100.00
9277;BME280;4676;42.678;23.244;2023-01-29T06:28:38;94316.47;;;-0.23;100.00
9277;BME280;4676;42.678;23.244;2023-01-29T06:31:06;94318.16;;;-0.13;100.00
9277;BME280;4676;42.678;23.244;2023-01-29T06:33:34;94319.00;;;-0.06;100.00
9277;BME280;4676;42.678;23.244;2023-01-29T06:36:02;94324.03;;;-0.05;100.00
9277;BME280;4676;42.678;23.244;2023-01-29T06:38:29;94333.16;;;-0.05;100.00
9277;BME280;4676;42.678;23.244;2023-01-29T06:40:57;94329.00;;;-0.08;100.00
9277;BME280;4676;42.678;23.244;2023-01-29T06:43:25;94333.97;;;-0.06;100.00
9277;BME280;4676;42.678;23.244;2023-01-29T06:45:54;94336.50;;;0.00;100.00
9277;BME280;4676;42.678;23.244;2023-01-29T06:48:22;94335.69;;;0.12;100.00
9277;BME280;4676;42.678;23.244;2023-01-29T06:50:49;94330.69;;;0.06;100.00
9277;BME280;4676;42.678;23.244;2023-01-29T06:53:19;94334.03;;;0.12;100.00
9277;BME280;4676;42.678;23.244;2023-01-29T06:55:50;94342.34;;;0.19;100.00
9277;BME280;4676;42.678;23.244;2023-01-29T06:58:19;94318.25;;;0.13;100.00
9277;BME280;4676;42.678;23.244;2023-01-29T07:00:47;94344.91;;;0.31;100.00
9277;BME280;4676;42.678;23.244;2023-01-29T07:03:14;94340.72;;;0.27;100.00
9277;BME280;4676;42.678;23.244;2023-01-29T07:05:41;94344.03;;;0.32;100.00
9277;BME280;4676;42.678;23.244;2023-01-29T07:08:08;94344.88;;;0.29;100.00
9277;BME280;4676;42.678;23.244;2023-01-29T07:10:35;94333.22;;;0.25;100.00
9277;BME280;4676;42.678;23.244;2023-01-29T07:13:02;94346.56;;;0.30;100.00
9277;BME280;4676;42.678;23.244;2023-01-29T07:15:28;94354.88;;;0.37;100.00
9277;BME280;4676;42.678;23.244;2023-01-29T07:17:58;94358.16;;;0.25;100.00
9277;BME280;4676;42.678;23.244;2023-01-29T07:20:26;94363.13;;;0.16;100.00
9277;BME280;4676;42.678;23.244;2023-01-29T07:22:53;94354.81;;;0.16;100.00
9277;BME280;4676;42.678;23.244;2023-01-29T07:25:20;94358.94;;;0.03;100.00
9277;BME280;4676;42.678;23.244;2023-01-29T07:27:47;94363.09;;;0.15;100.00
9277;BME280;4676;42.678;23.244;2023-01-29T07:30:15;94354.81;;;0.13;100.00
9277;BME280;4676;42.678;23.244;2023-01-29T07:32:42;94363.97;;;0.29;100.00
9277;BME280;4676;42.678;23.244;2023-01-29T07:35:10;94357.31;;;0.19;100.00
9277;BME280;4676;42.678;23.244;2023-01-29T07:37:37;94367.28;;;0.19;100.00
9277;BME280;4676;42.678;23.244;2023-01-29T07:40:05;94368.06;;;0.09;100.00
9277;BME280;4676;42.678;23.244;2023-01-29T07:42:36;94368.00;;;-0.08;100.00
9277;BME280;4676;42.678;23.244;2023-01-29T07:45:04;94363.84;;;-0.06;100.00
9277;BME280;4676;42.678;23.244;2023-01-29T07:47:31;94364.72;;;-0.01;100.00
9277;BME280;4676;42.678;23.244;2023-01-29T07:49:58;94368.03;;;0.04;100.00
9277;BME280;4676;42.678;23.244;2023-01-29T07:52:28;94374.72;;;0.14;100.00
9277;BME280;4676;42.678;23.244;2023-01-29T07:54:55;94378.09;;;0.24;100.00
9277;BME280;4676;42.678;23.244;2023-01-29T07:57:22;94377.28;;;0.32;100.00
9277;BME280;4676;42.678;23.244;2023-01-29T07:59:49;94373.16;;;0.43;100.00
9277;BME280;4676;42.678;23.244;2023-01-29T08:02:16;94377.28;;;0.28;100.00
9277;BME280;4676;42.678;23.244;2023-01-29T08:04:43;94383.94;;;0.36;100.00
9277;BME280;4676;42.678;23.244;2023-01-29T08:07:09;94388.13;;;0.45;100.00
9277;BME280;4676;42.678;23.244;2023-01-29T08:09:37;94385.63;;;0.49;100.00
9277;BME280;4676;42.678;23.244;2023-01-29T08:12:04;94389.00;;;0.55;100.00
9277;BME280;4676;42.678;23.244;2023-01-29T08:14:31;94389.78;;;0.40;100.00
9277;BME280;4676;42.678;23.244;2023-01-29T08:16:58;94392.28;;;0.43;100.00
9277;BME280;4676;42.678;23.244;2023-01-29T08:19:24;94390.63;;;0.45;100.00
9277;BME280;4676;42.678;23.244;2023-01-29T08:21:51;94388.13;;;0.42;100.00
9277;BME280;4676;42.678;23.244;2023-01-29T08:24:18;94387.25;;;0.31;100.00
9277;BME280;4676;42.678;23.244;2023-01-29T08:26:46;94353.97;;;0.21;100.00
9277;BME280;4676;42.678;23.244;2023-01-29T08:29:13;94398.94;;;0.44;100.00
9277;BME280;4676;42.678;23.244;2023-01-29T08:31:39;94400.59;;;0.49;100.00
9277;BME280;4676;42.678;23.244;2023-01-29T08:34:06;94400.59;;;0.43;100.00
9277;BME280;4676;42.678;23.244;2023-01-29T08:36:33;94408.91;;;0.45;100.00
9277;BME280;4676;42.678;23.244;2023-01-29T08:39:00;94408.91;;;0.45;100.00
9277;BME280;4676;42.678;23.244;2023-01-29T08:41:27;94403.94;;;0.45;100.00
9277;BME280;4676;42.678;23.244;2023-01-29T08:43:55;94410.53;;;0.33;100.00
9277;BME280;4676;42.678;23.244;2023-01-29T08:46:22;94410.53;;;0.37;100.00
9277;BME280;4676;42.678;23.244;2023-01-29T08:48:49;94415.53;;;0.46;100.00
9277;BME280;4676;42.678;23.244;2023-01-29T08:51:16;94420.47;;;0.21;100.00
9277;BME280;4676;42.678;23.244;2023-01-29T08:53:42;94395.44;;;0.01;100.00
9277;BME280;4676;42.678;23.244;2023-01-29T08:56:09;94422.88;;;0.12;100.00
9277;BME280;4676;42.678;23.244;2023-01-29T08:58:36;94426.25;;;0.20;100.00
9277;BME280;4676;42.678;23.244;2023-01-29T09:01:09;94430.38;;;0.12;100.00
9277;BME280;4676;42.678;23.244;2023-01-29T09:03:36;94423.75;;;0.20;100.00
9277;BME280;4676;42.678;23.244;2023-01-29T09:06:05;94432.13;;;0.35;100.00
9277;BME280;4676;42.678;23.244;2023-01-29T09:08:32;94432.09;;;0.29;100.00
9277;BME280;4676;42.678;23.244;2023-01-29T09:10:59;94412.97;;;0.25;100.00
9277;BME280;4676;42.678;23.244;2023-01-29T09:13:26;94426.34;;;0.44;100.00
9277;BME280;4676;42.678;23.244;2023-01-29T09:15:53;94426.38;;;0.52;100.00
9277;BME280;4676;42.678;23.244;2023-01-29T09:18:21;94426.38;;;0.58;100.00
9277;BME280;4676;42.678;23.244;2023-01-29T09:20:48;94423.09;;;0.69;100.00
9277;BME280;4676;42.678;23.244;2023-01-29T09:23:15;94405.63;;;0.60;100.00
9277;BME280;4676;42.678;23.244;2023-01-29T09:25:42;94423.97;;;0.83;100.00
9277;BME280;4676;42.678;23.244;2023-01-29T09:28:09;94416.50;;;0.83;100.00
9277;BME280;4676;42.678;23.244;2023-01-29T09:30:35;94422.25;;;0.61;100.00
9277;BME280;4676;42.678;23.244;2023-01-29T09:33:03;94350.66;;;0.22;100.00
9277;BME280;4676;42.678;23.244;2023-01-29T09:35:31;94423.13;;;0.77;100.00
9277;BME280;4676;42.678;23.244;2023-01-29T09:37:58;94412.28;;;0.66;100.00
9277;BME280;4676;42.678;23.244;2023-01-29T09:40:29;94418.97;;;0.76;100.00
9277;BME280;4676;42.678;23.244;2023-01-29T09:43:00;94415.63;;;0.72;100.00
9277;BME280;4676;42.678;23.244;2023-01-29T09:45:28;94410.63;;;0.66;100.00
9277;BME280;4676;42.678;23.244;2023-01-29T09:47:58;94407.28;;;0.61;100.00
9277;BME280;4676;42.678;23.244;2023-01-29T09:50:38;94399.78;;;0.50;100.00
9277;BME280;4676;42.678;23.244;2023-01-29T09:53:13;94411.44;;;0.59;100.00
9277;BME280;4676;42.678;23.244;2023-01-29T09:55:45;94387.28;;;0.46;100.00
9277;BME280;4676;42.678;23.244;2023-01-29T09:58:18;94405.63;;;0.68;100.00
9277;BME280;4676;42.678;23.244;2023-01-29T10:00:52;94402.34;;;0.81;100.00
9277;BME280;4676;42.678;23.244;2023-01-29T10:03:51;94403.19;;;0.77;100.00
9277;BME280;4676;42.678;23.244;2023-01-29T10:06:27;94411.47;;;0.70;100.00
9277;BME280;4676;42.678;23.244;2023-01-29T10:09:12;94404.81;;;0.69;100.00
9277;BME280;4676;42.678;23.244;2023-01-29T10:11:53;94408.13;;;0.71;100.00
9277;BME280;4676;42.678;23.244;2023-01-29T10:14:33;94393.97;;;0.53;100.00
9277;BME280;4676;42.678;23.244;2023-01-29T10:17:14;94394.78;;;0.41;100.00
9277;BME280;4676;42.678;23.244;2023-01-29T10:20:02;94393.13;;;0.42;100.00
9277;BME280;4676;42.678;23.244;2023-01-29T10:22:47;94392.25;;;0.31;100.00
9277;BME280;4676;42.678;23.244;2023-01-29T10:25:20;94393.06;;;0.33;100.00
9277;BME280;4676;42.678;23.244;2023-01-29T10:27:49;94383.09;;;0.30;100.00
9277;BME280;4676;42.678;23.244;2023-01-29T10:30:22;94389.75;;;0.32;100.00
9277;BME280;4676;42.678;23.244;2023-01-29T10:32:55;94384.72;;;0.25;100.00
9277;BME280;4676;42.678;23.244;2023-01-29T10:35:27;94378.06;;;0.19;100.00
9277;BME280;4676;42.678;23.244;2023-01-29T10:37:57;94378.91;;;0.18;100.00
9277;BME280;4676;42.678;23.244;2023-01-29T10:40:33;94358.91;;;0.02;100.00
9277;BME280;4676;42.678;23.244;2023-01-29T10:43:07;94379.72;;;0.19;100.00
9277;BME280;4676;42.678;23.244;2023-01-29T10:45:38;94375.63;;;0.27;100.00
9277;BME280;4676;42.678;23.244;2023-01-29T10:48:33;94376.34;;;0.05;100.00
9277;BME280;4676;42.678;23.244;2023-01-29T10:51:09;94381.38;;;0.12;100.00
9277;BME280;4676;42.678;23.244;2023-01-29T10:54:06;94375.56;;;0.18;100.00
9277;BME280;4676;42.678;23.244;2023-01-29T10:56:46;94373.94;;;0.20;100.00
9277;BME280;4676;42.678;23.244;2023-01-29T10:59:31;94371.41;;;0.18;100.00
9277;BME280;4676;42.678;23.244;2023-01-29T11:02:12;94368.13;;;0.27;100.00
9277;BME280;4676;42.678;23.244;2023-01-29T11:04:39;94368.97;;;0.32;100.00
9277;BME280;4676;42.678;23.244;2023-01-29T11:07:07;94363.16;;;0.39;100.00
9277;BME280;4676;42.678;23.244;2023-01-29T11:09:39;94364.88;;;0.49;100.00
9277;BME280;4676;42.678;23.244;2023-01-29T11:12:11;94368.22;;;0.56;100.00
9277;BME280;4676;42.678;23.244;2023-01-29T11:14:42;94369.06;;;0.56;100.00
9277;BME280;4676;42.678;23.244;2023-01-29T11:17:14;94367.38;;;0.49;100.00
9277;BME280;4676;42.678;23.244;2023-01-29T11:19:43;94357.41;;;0.52;100.00
9277;BME280;4676;42.678;23.244;2023-01-29T11:22:13;94340.78;;;0.56;100.00
9277;BME280;4676;42.678;23.244;2023-01-29T11:24:42;94351.59;;;0.68;100.00
9277;BME280;4676;42.678;23.244;2023-01-29T11:27:22;94354.13;;;0.80;100.00
9277;BME280;4676;42.678;23.244;2023-01-29T11:29:51;94343.31;;;0.75;100.00
9277;BME280;4676;42.678;23.244;2023-01-29T11:32:25;94349.13;;;0.79;100.00
9277;BME280;4676;42.678;23.244;2023-01-29T11:34:59;94347.47;;;0.72;100.00
9277;BME280;4676;42.678;23.244;2023-01-29T11:37:37;94334.19;;;0.77;100.00
9277;BME280;4676;42.678;23.244;2023-01-29T11:40:40;94335.81;;;0.66;100.00
9277;BME280;4676;42.678;23.244;2023-01-29T11:43:19;94329.16;;;0.71;100.00
9277;BME280;4676;42.678;23.244;2023-01-29T11:45:47;94320.00;;;0.54;100.00
9277;BME280;4676;42.678;23.244;2023-01-29T11:48:16;94300.03;;;0.37;100.00
9277;BME280;4676;42.678;23.244;2023-01-29T11:50:50;94320.00;;;0.55;100.00
9277;BME280;4676;42.678;23.244;2023-01-29T11:53:24;94319.16;;;0.50;100.00
9277;BME280;4676;42.678;23.244;2023-01-29T11:55:54;94305.06;;;0.49;100.00
9277;BME280;4676;42.678;23.244;2023-01-29T11:58:26;94307.56;;;0.66;100.00
9277;BME280;4676;42.678;23.244;2023-01-29T12:00:56;94313.41;;;0.84;100.00
9277;BME280;4676;42.678;23.244;2023-01-29T12:03:31;94288.44;;;0.71;100.00
9277;BME280;4676;42.678;23.244;2023-01-29T12:06:02;94310.06;;;1.00;100.00
9277;BME280;4676;42.678;23.244;2023-01-29T12:08:34;94308.38;;;1.10;100.00
9277;BME280;4676;42.678;23.244;2023-01-29T12:11:11;94299.22;;;1.06;100.00
9277;BME280;4676;42.678;23.244;2023-01-29T12:13:39;94307.53;;;1.07;100.00
9277;BME280;4676;42.678;23.244;2023-01-29T12:16:16;94300.91;;;1.15;100.00
9277;BME280;4676;42.678;23.244;2023-01-29T12:18:49;94276.78;;;0.79;100.00
9277;BME280;4676;42.678;23.244;2023-01-29T12:21:22;94311.72;;;0.92;100.00
9277;BME280;4676;42.678;23.244;2023-01-29T12:23:56;94312.53;;;0.88;100.00
9277;BME280;4676;42.678;23.244;2023-01-29T12:26:30;94311.72;;;0.92;100.00
9277;BME280;4676;42.678;23.244;2023-01-29T12:29:12;94312.53;;;0.99;100.00
9277;BME280;4676;42.678;23.244;2023-01-29T12:31:48;94313.38;;;1.07;100.00
9277;BME280;4676;42.678;23.244;2023-01-29T12:34:23;94300.09;;;0.91;100.00
9277;BME280;4676;42.678;23.244;2023-01-29T12:36:57;94295.91;;;0.93;100.00
9277;BME280;4676;42.678;23.244;2023-01-29T12:39:24;94307.56;;;0.96;100.00
9277;BME280;4676;42.678;23.244;2023-01-29T12:41:55;94315.06;;;0.81;100.00
9277;BME280;4676;42.678;23.244;2023-01-29T12:44:30;94308.41;;;0.87;100.00
9277;BME280;4676;42.678;23.244;2023-01-29T12:46:59;94310.06;;;1.00;100.00
9277;BME280;4676;42.678;23.244;2023-01-29T12:49:29;94280.97;;;0.90;100.00
9277;BME280;4676;42.678;23.244;2023-01-29T12:52:01;94315.03;;;1.13;100.00
9277;BME280;4676;42.678;23.244;2023-01-29T12:54:34;94319.19;;;1.21;100.00
9277;BME280;4676;42.678;23.244;2023-01-29T12:57:08;94314.19;;;0.95;100.00
9277;BME280;4676;42.678;23.244;2023-01-29T12:59:39;94310.06;;;0.87;100.00
9277;BME280;4676;42.678;23.244;2023-01-29T13:02:18;94308.41;;;0.87;100.00
9277;BME280;4676;42.678;23.244;2023-01-29T13:04:55;94313.38;;;0.80;100.00
9277;BME280;4676;42.678;23.244;2023-01-29T13:07:27;94310.03;;;0.72;100.00
9277;BME280;4676;42.678;23.244;2023-01-29T13:10:02;94302.59;;;0.70;100.00
9277;BME280;4676;42.678;23.244;2023-01-29T13:12:32;94301.72;;;0.74;100.00
9277;BME280;4676;42.678;23.244;2023-01-29T13:15:03;94300.91;;;0.75;100.00
9277;BME280;4676;42.678;23.244;2023-01-29T13:17:34;94302.56;;;0.75;100.00
9277;BME280;4676;42.678;23.244;2023-01-29T13:20:09;94300.09;;;0.84;100.00
9277;BME280;4676;42.678;23.244;2023-01-29T13:22:39;94302.59;;;0.84;100.00
9277;BME280;4676;42.678;23.244;2023-01-29T13:25:13;94294.25;;;0.58;100.00
9277;BME280;4676;42.678;23.244;2023-01-29T13:27:43;94303.41;;;0.74;100.00
9277;BME280;4676;42.678;23.244;2023-01-29T13:30:23;94303.41;;;0.66;100.00